createdAt,value
2019-03-20T00:00:58.982Z,88.94
2019-03-20T00:03:27.464Z,88.25
2019-03-20T00:05:55.986Z,88.71
2019-03-20T00:08:24.438Z,88.66
2019-03-20T00:10:52.926Z,89.19
2019-03-20T00:13:21.403Z,89.00
2019-03-20T00:15:49.862Z,88.70
2019-03-20T00:18:18.372Z,88.96
2019-03-20T00:20:46.843Z,89.23
2019-03-20T00:23:15.290Z,88.30
2019-03-20T00:25:44.005Z,88.29
2019-03-20T00:28:12.460Z,88.45
2019-03-20T00:30:41.023Z,88.53
2019-03-20T00:33:09.687Z,88.43
2019-03-20T00:35:38.204Z,88.37
2019-03-20T00:38:06.808Z,88.75
2019-03-20T00:40:35.730Z,88.70
2019-03-20T00:43:04.179Z,88.23
2019-03-20T00:45:32.914Z,88.21
2019-03-20T00:48:01.771Z,88.50
2019-03-20T00:50:30.217Z,88.68
2019-03-20T00:52:58.664Z,88.99
2019-03-20T00:55:27.262Z,89.44
2019-03-20T00:57:55.783Z,89.05
2019-03-20T01:00:25.436Z,88.85
2019-03-20T01:02:54.019Z,88.55
2019-03-20T01:05:22.819Z,88.98
2019-03-20T01:07:51.519Z,89.27
2019-03-20T01:10:24.242Z,89.64
2019-03-20T01:12:52.958Z,89.64
2019-03-20T01:15:21.663Z,88.67
2019-03-20T01:17:50.305Z,89.00
2019-03-20T01:20:19.899Z,89.00
2019-03-20T01:22:48.591Z,88.65
2019-03-20T01:25:17.904Z,88.10
2019-03-20T01:27:46.449Z,88.06
2019-03-20T01:30:24.150Z,88.77
2019-03-20T01:32:52.614Z,89.63
2019-03-20T01:35:24.185Z,90.01
2019-03-20T01:37:51.465Z,89.86
2019-03-20T01:40:19.919Z,90.21
2019-03-20T01:42:48.376Z,89.75
2019-03-20T01:45:16.971Z,88.83
2019-03-20T01:47:45.517Z,88.45
2019-03-20T01:50:14.218Z,88.75
2019-03-20T01:52:42.866Z,89.10
2019-03-20T01:55:11.462Z,89.38
2019-03-20T01:57:39.920Z,89.03
2019-03-20T02:00:10.413Z,88.88
2019-03-20T02:02:38.932Z,88.99
2019-03-20T02:05:07.969Z,88.56
2019-03-20T02:07:36.439Z,87.97
2019-03-20T02:10:10.926Z,88.15
2019-03-20T02:12:39.382Z,88.54
2019-03-20T02:15:13.998Z,88.88
2019-03-20T02:17:42.454Z,89.77
2019-03-20T02:20:15.839Z,90.18
2019-03-20T02:22:44.480Z,90.38
2019-03-20T02:25:13.870Z,90.45
2019-03-20T02:27:42.490Z,90.51
2019-03-20T02:30:20.797Z,90.05
2019-03-20T02:32:49.324Z,90.44
2019-03-20T02:35:17.838Z,90.85
2019-03-20T02:37:46.404Z,90.93
2019-03-20T02:40:15.499Z,91.02
2019-03-20T02:42:44.050Z,90.57
2019-03-20T02:45:18.608Z,89.56
2019-03-20T02:47:47.067Z,89.38
2019-03-20T02:50:15.881Z,88.96
2019-03-20T02:52:44.611Z,89.53
2019-03-20T02:55:13.687Z,89.84
2019-03-20T02:57:42.140Z,89.50
2019-03-20T03:00:20.871Z,89.08
2019-03-20T03:02:49.367Z,89.41
2019-03-20T03:05:18.560Z,90.35
2019-03-20T03:07:47.224Z,89.71
2019-03-20T03:10:17.657Z,90.29
2019-03-20T03:12:46.372Z,90.34
2019-03-20T03:15:16.005Z,90.15
2019-03-20T03:17:44.630Z,91.03
2019-03-20T03:20:14.337Z,90.90
2019-03-20T03:22:42.977Z,91.20
2019-03-20T03:25:12.767Z,90.81
2019-03-20T03:27:41.224Z,90.93
2019-03-20T03:30:15.851Z,90.07
2019-03-20T03:32:44.467Z,90.20
2019-03-20T03:35:17.878Z,90.90
2019-03-20T03:37:43.698Z,91.16
2019-03-20T03:40:22.291Z,90.77
2019-03-20T03:42:50.808Z,90.54
2019-03-20T03:45:19.331Z,90.09
2019-03-20T03:47:47.861Z,89.61
2019-03-20T03:50:16.493Z,90.24
2019-03-20T03:52:44.961Z,91.00
2019-03-20T03:55:14.912Z,91.68
2019-03-20T03:57:44.474Z,91.08
2019-03-20T04:00:15.038Z,91.36
2019-03-20T04:02:43.538Z,92.39
2019-03-20T04:05:12.061Z,91.41
2019-03-20T04:07:40.572Z,91.73
2019-03-20T04:10:18.890Z,92.31
2019-03-20T04:13:06.514Z,91.45
2019-03-20T04:15:36.541Z,91.02
2019-03-20T04:18:45.103Z,91.15
2019-03-20T04:21:13.591Z,91.58
2019-03-20T04:23:42.045Z,91.71
2019-03-20T04:26:10.500Z,91.42
2019-03-20T04:28:38.992Z,90.85
2019-03-20T04:31:26.693Z,91.00
2019-03-20T04:34:14.451Z,93.04
2019-03-20T04:36:47.715Z,92.40
2019-03-20T04:42:06.079Z,91.57
2019-03-20T04:44:53.757Z,91.27
2019-03-20T04:47:22.211Z,90.70
2019-03-20T04:49:50.672Z,90.48
2019-03-20T04:52:19.159Z,90.79
2019-03-20T04:54:47.622Z,91.16
2019-03-20T04:57:16.068Z,91.16
2019-03-20T04:59:44.558Z,91.09
2019-03-20T05:02:32.208Z,90.98
2019-03-20T05:07:34.778Z,90.61
2019-03-20T05:12:57.559Z,89.25
2019-03-20T05:15:26.274Z,89.64
2019-03-20T05:17:54.728Z,90.46
2019-03-20T05:21:03.151Z,90.69
2019-03-20T05:23:31.604Z,90.61
2019-03-20T05:26:19.419Z,90.45
2019-03-20T05:28:47.871Z,91.22
2019-03-20T05:31:16.330Z,91.21
2019-03-20T05:36:19.092Z,91.26
2019-03-20T05:38:47.551Z,91.08
2019-03-20T05:43:50.391Z,91.37
2019-03-20T05:46:18.850Z,91.16
2019-03-20T05:48:47.374Z,91.80
2019-03-20T05:51:15.827Z,92.21
2019-03-20T05:54:03.638Z,91.68
2019-03-20T05:56:32.106Z,91.08
2019-03-20T05:59:00.587Z,91.05
2019-03-20T06:04:22.851Z,90.84
2019-03-20T06:06:51.348Z,90.57
2019-03-20T06:09:39.130Z,90.65
2019-03-20T06:12:07.625Z,90.71
2019-03-20T06:14:36.102Z,91.18
2019-03-20T06:19:57.668Z,91.61
2019-03-20T06:22:26.160Z,91.10
2019-03-20T06:24:54.616Z,90.76
2019-03-20T06:27:23.139Z,90.76
2019-03-20T06:32:25.843Z,90.55
2019-03-20T06:34:54.299Z,90.44
2019-03-20T06:37:32.236Z,90.79
2019-03-20T06:39:53.465Z,90.23
2019-03-20T06:42:23.167Z,90.53
2019-03-20T06:44:51.677Z,90.29
2019-03-20T06:47:20.126Z,90.03
2019-03-20T06:49:48.612Z,89.95
2019-03-20T06:52:17.242Z,89.65
2019-03-20T06:54:45.690Z,89.48
2019-03-20T06:57:33.492Z,89.54
2019-03-20T07:00:40.529Z,89.72
2019-03-20T07:03:47.751Z,89.63
2019-03-20T07:06:56.114Z,89.60
2019-03-20T07:10:04.859Z,89.54
2019-03-20T07:12:33.314Z,90.14
2019-03-20T07:15:01.768Z,90.13
2019-03-20T07:20:49.580Z,88.87
2019-03-20T07:23:18.030Z,87.63
2019-03-20T07:25:46.483Z,85.86
2019-03-20T07:28:14.983Z,85.78
2019-03-20T07:30:43.422Z,85.38
2019-03-20T07:33:11.869Z,85.64
2019-03-20T07:35:40.357Z,85.67
2019-03-20T07:38:28.055Z,84.94
2019-03-20T07:43:30.782Z,85.11
2019-03-20T07:45:59.268Z,84.81
2019-03-20T07:48:27.742Z,85.24
2019-03-20T07:50:56.167Z,84.69
2019-03-20T07:56:17.716Z,85.01
2019-03-20T07:58:46.205Z,84.93
2019-03-20T08:01:14.657Z,84.84
2019-03-20T08:03:43.138Z,85.28
2019-03-20T08:06:11.624Z,84.30
2019-03-20T08:08:59.324Z,82.97
2019-03-20T08:11:27.810Z,82.45
2019-03-20T08:14:15.455Z,83.09
2019-03-20T08:16:43.937Z,81.89
2019-03-20T08:19:12.385Z,81.10
2019-03-20T08:21:40.835Z,79.93
2019-03-20T08:26:43.047Z,79.62
2019-03-20T08:29:11.501Z,78.23
2019-03-20T08:34:14.277Z,77.54
2019-03-20T08:36:42.758Z,75.46
2019-03-20T08:39:11.209Z,74.41
2019-03-20T08:41:39.664Z,75.67
2019-03-20T08:46:42.078Z,74.99
2019-03-20T08:49:10.533Z,74.98
2019-03-20T08:51:39.007Z,74.20
2019-03-20T08:54:07.453Z,73.43
2019-03-20T08:56:35.907Z,72.39
2019-03-20T08:59:23.716Z,72.43
2019-03-20T09:01:52.171Z,72.82
2019-03-20T09:04:20.633Z,73.37
2019-03-20T09:09:22.642Z,72.11
2019-03-20T09:11:51.090Z,70.94
2019-03-20T09:16:54.026Z,69.57
2019-03-20T09:21:56.459Z,67.82
2019-03-20T09:27:18.141Z,65.97
2019-03-20T09:30:06.047Z,66.61
2019-03-20T09:32:34.495Z,66.46
2019-03-20T09:40:31.171Z,63.30
2019-03-20T09:43:18.918Z,62.76
2019-03-20T09:46:06.689Z,62.49
2019-03-20T09:48:54.367Z,62.38
2019-03-20T09:51:22.821Z,61.76
2019-03-20T09:57:03.575Z,61.52
2019-03-20T09:59:32.069Z,61.21
2019-03-20T10:02:02.787Z,60.93
2019-03-20T10:04:30.691Z,58.51
2019-03-20T10:06:59.209Z,59.13
2019-03-20T10:09:46.979Z,58.10
2019-03-20T10:12:15.466Z,58.07
2019-03-20T10:15:03.234Z,57.32
2019-03-20T10:20:45.999Z,56.99
2019-03-20T10:23:14.483Z,56.60
2019-03-20T10:25:44.845Z,56.51
2019-03-20T10:28:13.102Z,55.44
2019-03-20T10:31:00.813Z,54.88
2019-03-20T10:33:29.268Z,54.42
2019-03-20T10:36:17.111Z,55.02
2019-03-20T10:38:45.607Z,53.52
2019-03-20T10:41:14.018Z,52.13
2019-03-20T10:43:42.513Z,53.32
2019-03-20T10:46:11.051Z,51.73
2019-03-20T10:48:39.513Z,51.55
2019-03-20T10:51:08.127Z,51.28
2019-03-20T10:53:36.657Z,50.61
2019-03-20T10:56:05.189Z,50.11
2019-03-20T10:58:33.724Z,50.55
2019-03-20T11:01:02.254Z,51.00
2019-03-20T11:03:30.716Z,49.84
2019-03-20T11:05:59.203Z,51.09
2019-03-20T11:08:27.653Z,47.99
2019-03-20T11:10:56.113Z,49.30
2019-03-20T11:13:24.616Z,47.24
2019-03-20T11:15:53.050Z,46.98
2019-03-20T11:18:21.500Z,47.90
2019-03-20T11:20:50.210Z,49.57
2019-03-20T11:23:18.667Z,48.35
2019-03-20T11:25:47.196Z,47.28
2019-03-20T11:28:15.686Z,46.48
2019-03-20T11:30:44.210Z,47.04
2019-03-20T11:33:12.804Z,45.66
2019-03-20T11:35:42.503Z,45.28
2019-03-20T11:38:11.305Z,44.16
2019-03-20T11:40:40.918Z,45.89
2019-03-20T11:43:09.838Z,44.63
2019-03-20T11:45:38.297Z,44.17
2019-03-20T11:48:06.782Z,43.29
2019-03-20T11:50:40.516Z,44.48
2019-03-20T11:53:09.612Z,46.00
2019-03-20T11:55:38.505Z,45.18
2019-03-20T11:58:08.193Z,44.40
2019-03-20T12:00:37.084Z,44.47
2019-03-20T12:03:06.190Z,44.68
2019-03-20T12:05:34.740Z,44.83
2019-03-20T12:08:03.323Z,44.33
2019-03-20T12:10:32.719Z,45.55
2019-03-20T12:13:01.305Z,44.74
2019-03-20T12:15:30.010Z,44.84
2019-03-20T12:17:58.600Z,43.38
2019-03-20T12:20:27.565Z,43.65
2019-03-20T12:22:56.112Z,43.63
2019-03-20T12:25:40.943Z,43.14
2019-03-20T12:28:09.415Z,43.28
2019-03-20T12:30:38.805Z,44.34
2019-03-20T12:33:07.604Z,43.66
2019-03-20T12:35:40.647Z,43.73
2019-03-20T12:38:14.766Z,44.02
2019-03-20T12:40:39.402Z,44.29
2019-03-20T12:43:08.204Z,43.92
2019-03-20T12:45:38.097Z,43.74
2019-03-20T12:48:07.996Z,43.32
2019-03-20T12:50:36.502Z,43.60
2019-03-20T12:53:06.796Z,43.95
2019-03-20T12:55:35.509Z,43.64
2019-03-20T12:58:04.036Z,43.79
2019-03-20T13:00:32.619Z,42.83
2019-03-20T13:03:01.205Z,42.81
2019-03-20T13:05:29.792Z,42.89
2019-03-20T13:08:05.453Z,43.38
2019-03-20T13:10:28.860Z,42.88
2019-03-20T13:12:57.377Z,43.49
2019-03-20T13:15:26.769Z,42.93
2019-03-20T13:17:56.302Z,42.74
2019-03-20T13:20:25.189Z,43.54
2019-03-20T13:22:59.413Z,43.21
2019-03-20T13:25:27.999Z,44.80
2019-03-20T13:27:56.523Z,43.64
2019-03-20T13:30:53.367Z,42.96
2019-03-20T13:33:25.982Z,42.98
2019-03-20T13:35:52.037Z,42.96
2019-03-20T13:38:20.595Z,42.50
2019-03-20T13:40:49.044Z,41.96
2019-03-20T13:43:17.500Z,41.35
2019-03-20T13:45:46.060Z,41.57
2019-03-20T13:48:14.513Z,41.52
2019-03-20T13:50:43.005Z,41.62
2019-03-20T13:53:11.838Z,41.39
2019-03-20T13:55:40.301Z,40.13
2019-03-20T13:58:08.759Z,40.37
2019-03-20T14:00:37.589Z,41.15
2019-03-20T14:03:06.129Z,40.91
2019-03-20T14:05:34.587Z,41.39
2019-03-20T14:08:03.147Z,40.49
2019-03-20T14:10:32.268Z,39.48
2019-03-20T14:13:00.767Z,39.47
2019-03-20T14:15:29.401Z,39.41
2019-03-20T14:17:57.923Z,40.11
2019-03-20T14:20:31.611Z,39.78
2019-03-20T14:23:00.099Z,39.28
2019-03-20T14:25:28.553Z,40.56
2019-03-20T14:27:57.247Z,39.51
2019-03-20T14:30:31.243Z,39.25
2019-03-20T14:32:59.835Z,39.97
2019-03-20T14:35:28.366Z,40.50
2019-03-20T14:37:56.942Z,39.29
2019-03-20T14:40:36.084Z,39.81
2019-03-20T14:43:02.745Z,40.31
2019-03-20T14:45:31.229Z,39.55
2019-03-20T14:47:59.852Z,41.08
2019-03-20T14:50:30.362Z,41.51
2019-03-20T14:52:59.060Z,41.66
2019-03-20T14:55:27.850Z,41.92
2019-03-20T14:57:56.489Z,41.67
2019-03-20T15:00:26.363Z,42.25
2019-03-20T15:02:55.054Z,41.15
2019-03-20T15:05:24.014Z,41.24
2019-03-20T15:07:52.608Z,41.89
2019-03-20T15:10:28.453Z,42.21
2019-03-20T15:12:57.824Z,41.23
2019-03-20T15:15:29.318Z,41.29
2019-03-20T15:17:58.407Z,41.96
2019-03-20T15:20:26.931Z,42.53
2019-03-20T15:22:55.463Z,42.56
2019-03-20T15:25:23.961Z,42.58
2019-03-20T15:27:52.520Z,42.88
2019-03-20T15:30:26.063Z,43.01
2019-03-20T15:32:54.629Z,43.24
2019-03-20T15:35:23.754Z,42.93
2019-03-20T15:37:52.275Z,42.21
2019-03-20T15:40:26.497Z,43.72
2019-03-20T15:42:55.031Z,42.52
2019-03-20T15:45:23.554Z,42.79
2019-03-20T15:47:52.254Z,42.27
2019-03-20T15:50:25.945Z,42.82
2019-03-20T15:52:54.399Z,43.25
2019-03-20T15:55:33.910Z,43.30
2019-03-20T15:58:02.500Z,42.61
2019-03-20T16:00:31.039Z,43.54
2019-03-20T16:03:05.093Z,43.40
2019-03-20T16:05:33.620Z,43.38
2019-03-20T16:08:02.152Z,44.23
2019-03-20T16:10:30.742Z,42.70
2019-03-20T16:12:59.264Z,42.75
2019-03-20T16:15:27.726Z,43.50
2019-03-20T16:17:56.281Z,43.42
2019-03-20T16:20:24.884Z,43.01
2019-03-20T16:22:53.550Z,42.61
2019-03-20T16:25:23.423Z,42.55
2019-03-20T16:27:51.947Z,42.90
2019-03-20T16:30:28.080Z,42.95
2019-03-20T16:32:56.725Z,43.46
2019-03-20T16:35:25.180Z,43.18
2019-03-20T16:37:54.144Z,43.86
2019-03-20T16:40:25.663Z,43.34
2019-03-20T16:43:13.564Z,42.99
2019-03-20T16:46:01.214Z,43.13
2019-03-20T16:51:03.559Z,43.25
2019-03-20T16:53:32.038Z,43.35
2019-03-20T16:56:00.509Z,43.11
2019-03-20T16:58:28.959Z,43.97
2019-03-20T17:00:57.414Z,44.37
2019-03-20T17:05:59.552Z,45.10
2019-03-20T17:08:47.407Z,46.90
2019-03-20T17:11:38.585Z,47.35
2019-03-20T17:14:24.645Z,47.58
2019-03-20T17:17:12.424Z,48.12
2019-03-20T17:19:40.910Z,48.22
2019-03-20T17:22:09.417Z,48.67
2019-03-20T17:24:37.819Z,49.09
2019-03-20T17:29:40.813Z,49.20
2019-03-20T17:32:09.308Z,49.39
2019-03-20T17:34:37.763Z,49.25
2019-03-20T17:37:25.861Z,49.82
2019-03-20T17:39:54.315Z,50.73
2019-03-20T17:42:22.771Z,52.15
2019-03-20T17:44:51.269Z,52.61
2019-03-20T17:47:19.732Z,53.65
2019-03-20T17:49:48.183Z,54.23
2019-03-20T17:52:16.681Z,54.73
2019-03-20T17:54:45.157Z,55.01
2019-03-20T17:57:13.615Z,55.50
2019-03-20T18:02:23.574Z,56.89
2019-03-20T18:04:46.412Z,56.87
2019-03-20T18:07:14.872Z,57.41
2019-03-20T18:09:43.332Z,57.53
2019-03-20T18:12:11.846Z,57.42
2019-03-20T18:14:40.372Z,58.06
2019-03-20T18:17:08.823Z,59.07
2019-03-20T18:22:11.038Z,60.12
2019-03-20T18:24:39.499Z,60.94
2019-03-20T18:27:07.995Z,60.23
2019-03-20T18:29:36.450Z,60.16
2019-03-20T18:32:24.265Z,59.41
2019-03-20T18:34:52.720Z,59.71
2019-03-20T18:37:40.471Z,60.49
2019-03-20T18:40:28.439Z,59.79
2019-03-20T18:43:16.325Z,59.54
2019-03-20T18:45:44.798Z,61.63
2019-03-20T18:48:32.527Z,62.19
2019-03-20T18:51:00.982Z,61.63
2019-03-20T18:53:29.439Z,62.30
2019-03-20T18:58:51.698Z,62.27
2019-03-20T19:01:20.269Z,62.14
2019-03-20T19:03:48.747Z,63.55
2019-03-20T19:06:57.465Z,63.82
2019-03-20T19:09:26.029Z,64.51
2019-03-20T19:11:54.594Z,64.74
2019-03-20T19:14:23.086Z,65.46
2019-03-20T19:17:10.748Z,66.11
2019-03-20T19:19:39.258Z,67.09
2019-03-20T19:22:27.013Z,67.07
2019-03-20T19:27:29.061Z,67.87
2019-03-20T19:29:57.546Z,67.66
2019-03-20T19:32:25.998Z,69.99
2019-03-20T19:38:07.417Z,70.69
2019-03-20T19:43:09.501Z,70.85
2019-03-20T19:45:57.342Z,71.43
2019-03-20T19:48:25.800Z,71.56
2019-03-20T19:50:54.254Z,72.27
2019-03-20T19:55:56.312Z,73.24
2019-03-20T19:58:24.763Z,72.04
2019-03-20T20:03:27.542Z,73.57
2019-03-20T20:05:56.037Z,73.88
2019-03-20T20:08:24.496Z,75.03
2019-03-20T20:10:52.940Z,75.34
2019-03-20T20:13:21.412Z,75.19
2019-03-20T20:16:09.124Z,75.99
2019-03-20T20:18:37.583Z,76.49
2019-03-20T20:21:46.074Z,76.59
2019-03-20T20:24:14.530Z,76.68
2019-03-20T20:26:42.994Z,76.66
2019-03-20T20:29:11.479Z,77.21
2019-03-20T20:31:39.937Z,77.78
2019-03-20T20:34:08.396Z,77.56
2019-03-20T20:36:36.909Z,78.08
2019-03-20T20:39:45.279Z,78.54
2019-03-20T20:44:47.456Z,77.73
2019-03-20T20:47:15.948Z,76.95
2019-03-20T20:49:44.403Z,77.45
2019-03-20T20:52:19.390Z,78.17
2019-03-20T20:57:17.523Z,78.93
2019-03-20T20:59:45.974Z,78.97
2019-03-20T21:02:33.706Z,78.71
2019-03-20T21:05:02.164Z,78.41
2019-03-20T21:11:04.091Z,78.69
2019-03-20T21:13:32.582Z,78.38
2019-03-20T21:16:01.043Z,78.79
2019-03-20T21:18:50.382Z,79.40
2019-03-20T21:27:40.982Z,79.54
2019-03-20T21:30:48.036Z,80.25
2019-03-20T21:33:56.576Z,80.93
2019-03-20T21:37:05.003Z,81.07
2019-03-20T21:39:52.735Z,80.93
2019-03-20T21:43:06.941Z,80.36
2019-03-20T21:46:08.584Z,81.21
2019-03-20T21:48:37.034Z,81.12
2019-03-20T21:54:37.423Z,82.41
2019-03-20T21:57:44.596Z,82.81
2019-03-20T22:00:51.626Z,82.51
2019-03-20T22:03:20.115Z,83.60
2019-03-20T22:06:28.536Z,83.41
2019-03-20T22:12:10.409Z,83.11
2019-03-20T22:18:12.081Z,84.50
2019-03-20T22:21:20.450Z,84.10
2019-03-20T22:24:28.900Z,81.88
2019-03-20T22:27:37.324Z,83.68
2019-03-20T22:30:46.066Z,84.06
2019-03-20T22:33:53.111Z,84.01
2019-03-20T22:39:54.315Z,84.52
2019-03-20T22:43:02.685Z,84.23
2019-03-20T22:46:11.220Z,84.01
2019-03-20T22:49:18.257Z,83.73
2019-03-20T22:52:25.337Z,83.83
2019-03-20T22:55:32.393Z,84.17
2019-03-20T22:58:39.534Z,84.81
2019-03-20T23:01:27.359Z,85.66
2019-03-20T23:04:34.503Z,85.13
2019-03-20T23:07:02.958Z,85.74
2019-03-20T23:09:31.420Z,86.11
2019-03-20T23:12:39.838Z,85.56
2019-03-20T23:15:48.187Z,85.38
2019-03-20T23:21:09.645Z,85.94
2019-03-20T23:24:18.046Z,85.76
2019-03-20T23:26:46.500Z,85.54
2019-03-20T23:29:15.025Z,85.62
2019-03-20T23:32:02.823Z,85.62
2019-03-20T23:39:54.716Z,85.76
2019-03-20T23:42:42.469Z,86.29
2019-03-20T23:45:50.850Z,86.74
2019-03-20T23:48:59.246Z,86.79
2019-03-20T23:52:07.616Z,86.92
2019-03-20T23:55:16.015Z,87.35
2019-03-20T23:57:44.466Z,87.18
